createdAt,value
2019-05-17T00:01:23.791Z,82.38
2019-05-17T00:03:59.303Z,82.24
2019-05-17T00:06:36.797Z,82.30
2019-05-17T00:09:11.152Z,81.92
2019-05-17T00:11:48.108Z,82.43
2019-05-17T00:14:23.110Z,82.61
2019-05-17T00:16:58.111Z,82.80
2019-05-17T00:19:33.446Z,82.30
2019-05-17T00:22:09.733Z,82.06
2019-05-17T00:24:44.827Z,82.22
2019-05-17T00:27:21.458Z,82.21
2019-05-17T00:29:57.116Z,81.58
2019-05-17T00:32:32.438Z,81.82
2019-05-17T00:35:07.754Z,81.99
2019-05-17T00:37:43.292Z,82.02
2019-05-17T00:40:19.051Z,82.08
2019-05-17T00:42:54.054Z,81.94
2019-05-17T00:45:29.074Z,81.46
2019-05-17T00:48:06.293Z,81.75
2019-05-17T00:50:40.966Z,81.25
2019-05-17T00:53:16.446Z,81.11
2019-05-17T00:55:51.663Z,81.67
2019-05-17T00:58:26.676Z,81.97
2019-05-17T01:01:02.725Z,81.62
2019-05-17T01:03:37.724Z,81.87
2019-05-17T01:06:12.839Z,81.91
2019-05-17T01:09:00.472Z,82.23
2019-05-17T01:11:26.939Z,82.43
2019-05-17T01:14:01.724Z,82.22
2019-05-17T01:16:36.894Z,82.21
2019-05-17T01:19:11.981Z,81.96
2019-05-17T01:21:47.568Z,82.41
2019-05-17T01:24:22.589Z,82.48
2019-05-17T01:26:57.583Z,82.10
2019-05-17T01:29:32.977Z,82.27
2019-05-17T01:32:08.165Z,81.95
2019-05-17T01:34:43.165Z,81.91
2019-05-17T01:37:18.173Z,81.63
2019-05-17T01:39:53.168Z,81.99
2019-05-17T01:42:28.458Z,81.80
2019-05-17T01:45:03.478Z,81.61
2019-05-17T01:47:38.550Z,81.58
2019-05-17T01:50:14.046Z,81.70
2019-05-17T01:52:49.116Z,82.01
2019-05-17T01:55:26.582Z,82.38
2019-05-17T01:58:01.628Z,82.17
2019-05-17T02:00:37.665Z,81.97
2019-05-17T02:03:13.123Z,82.14
2019-05-17T02:05:48.143Z,82.09
2019-05-17T02:08:23.131Z,81.79
2019-05-17T02:10:58.239Z,81.72
2019-05-17T02:13:33.506Z,82.14
2019-05-17T02:16:08.627Z,82.38
2019-05-17T02:18:43.600Z,82.51
2019-05-17T02:21:18.644Z,82.28
2019-05-17T02:23:53.630Z,82.42
2019-05-17T02:26:28.636Z,82.13
2019-05-17T02:29:03.813Z,81.83
2019-05-17T02:31:43.248Z,82.10
2019-05-17T02:34:17.208Z,82.26
2019-05-17T02:36:53.361Z,82.17
2019-05-17T02:39:28.816Z,82.28
2019-05-17T02:42:03.922Z,82.43
2019-05-17T02:44:39.065Z,82.22
2019-05-17T02:47:14.142Z,82.25
2019-05-17T02:49:49.254Z,82.21
2019-05-17T02:52:24.266Z,82.18
2019-05-17T02:54:59.268Z,82.14
2019-05-17T02:57:35.199Z,82.34
2019-05-17T03:00:13.328Z,82.41
2019-05-17T03:02:47.794Z,82.22
2019-05-17T03:05:23.356Z,82.12
2019-05-17T03:07:58.481Z,82.09
2019-05-17T03:10:34.117Z,82.19
2019-05-17T03:13:12.614Z,82.16
2019-05-17T03:15:46.084Z,82.33
2019-05-17T03:18:22.958Z,82.20
2019-05-17T03:20:57.808Z,82.13
2019-05-17T03:23:35.552Z,81.95
2019-05-17T03:26:13.193Z,82.16
2019-05-17T03:28:48.030Z,82.32
2019-05-17T03:31:26.280Z,82.57
2019-05-17T03:34:06.230Z,82.52
2019-05-17T03:36:39.254Z,82.07
2019-05-17T03:39:14.228Z,82.32
2019-05-17T03:41:49.236Z,82.32
2019-05-17T03:44:24.214Z,81.95
2019-05-17T03:47:02.166Z,81.55
2019-05-17T03:49:39.332Z,81.66
2019-05-17T03:52:13.691Z,81.94
2019-05-17T03:54:48.868Z,81.89
2019-05-17T03:57:24.275Z,81.92
2019-05-17T03:59:59.238Z,82.04
2019-05-17T04:02:35.323Z,82.33
2019-05-17T04:05:12.622Z,82.28
2019-05-17T04:07:48.011Z,82.25
2019-05-17T04:10:23.075Z,82.54
2019-05-17T04:12:58.254Z,82.69
2019-05-17T04:15:33.423Z,82.84
2019-05-17T04:18:08.962Z,82.58
2019-05-17T04:20:44.026Z,82.62
2019-05-17T04:23:19.008Z,82.33
2019-05-17T04:25:54.013Z,83.08
2019-05-17T04:28:33.586Z,82.84
2019-05-17T04:31:08.912Z,82.65
2019-05-17T04:33:44.046Z,82.79
2019-05-17T04:36:22.253Z,82.99
2019-05-17T04:41:49.274Z,83.01
2019-05-17T04:44:23.051Z,82.90
2019-05-17T04:46:57.454Z,82.63
2019-05-17T04:49:33.531Z,82.92
2019-05-17T04:52:13.728Z,83.29
2019-05-17T04:54:48.375Z,83.17
2019-05-17T04:57:24.181Z,82.88
2019-05-17T04:59:59.310Z,83.43
2019-05-17T05:02:34.449Z,83.28
2019-05-17T05:05:13.089Z,83.21
2019-05-17T05:07:46.384Z,83.18
2019-05-17T05:10:24.339Z,83.32
2019-05-17T05:12:59.404Z,83.15
2019-05-17T05:15:44.779Z,83.01
2019-05-17T05:18:22.198Z,82.92
2019-05-17T05:20:56.876Z,82.81
2019-05-17T05:23:31.998Z,83.08
2019-05-17T05:26:06.950Z,82.97
2019-05-17T05:28:42.110Z,82.56
2019-05-17T05:31:17.153Z,82.41
2019-05-17T05:33:52.342Z,82.80
2019-05-17T05:36:27.435Z,82.94
2019-05-17T05:39:02.613Z,83.12
2019-05-17T05:41:37.824Z,83.54
2019-05-17T05:44:12.940Z,83.72
2019-05-17T05:46:48.679Z,83.86
2019-05-17T05:49:23.675Z,84.02
2019-05-17T05:51:58.769Z,84.02
2019-05-17T05:54:35.063Z,83.48
2019-05-17T05:57:12.481Z,83.22
2019-05-17T05:59:47.009Z,83.40
2019-05-17T06:02:22.155Z,83.50
2019-05-17T06:04:57.915Z,83.43
2019-05-17T06:07:33.426Z,82.79
2019-05-17T06:10:14.163Z,82.30
2019-05-17T06:12:51.623Z,82.17
2019-05-17T06:15:25.954Z,81.55
2019-05-17T06:18:02.920Z,82.03
2019-05-17T06:20:37.772Z,82.01
2019-05-17T06:23:12.775Z,81.81
2019-05-17T06:25:47.786Z,81.01
2019-05-17T06:28:22.781Z,81.43
2019-05-17T06:30:57.868Z,81.76
2019-05-17T06:33:34.725Z,81.21
2019-05-17T06:36:10.096Z,81.37
2019-05-17T06:38:45.214Z,80.89
2019-05-17T06:41:21.522Z,81.04
2019-05-17T06:43:56.770Z,80.55
2019-05-17T06:46:32.458Z,80.85
2019-05-17T06:49:07.696Z,80.24
2019-05-17T06:51:42.843Z,79.83
2019-05-17T06:54:17.861Z,79.57
2019-05-17T06:56:52.955Z,79.36
2019-05-17T06:59:28.057Z,79.53
2019-05-17T07:02:03.089Z,79.17
2019-05-17T07:04:39.490Z,77.91
2019-05-17T07:07:26.855Z,78.31
2019-05-17T07:10:02.500Z,77.81
2019-05-17T07:12:51.096Z,78.19
2019-05-17T07:15:14.525Z,78.04
2019-05-17T07:17:50.578Z,78.58
2019-05-17T07:20:26.640Z,78.77
2019-05-17T07:23:01.736Z,78.83
2019-05-17T07:25:36.727Z,79.25
2019-05-17T07:28:11.732Z,78.98
2019-05-17T07:30:46.984Z,77.91
2019-05-17T07:33:22.075Z,76.12
2019-05-17T07:35:59.370Z,74.36
2019-05-17T07:38:34.537Z,75.20
2019-05-17T07:41:10.193Z,74.61
2019-05-17T07:43:46.469Z,73.22
2019-05-17T07:46:21.654Z,73.82
2019-05-17T07:49:00.200Z,73.34
2019-05-17T07:51:34.344Z,73.06
2019-05-17T07:54:10.430Z,72.58
2019-05-17T07:56:45.706Z,73.95
2019-05-17T07:59:20.785Z,73.95
2019-05-17T08:01:55.912Z,73.69
2019-05-17T08:04:31.300Z,72.28
2019-05-17T08:07:06.553Z,71.65
2019-05-17T08:09:41.536Z,72.24
2019-05-17T08:12:16.916Z,72.40
2019-05-17T08:14:53.008Z,71.59
2019-05-17T08:17:30.259Z,71.14
2019-05-17T08:20:05.668Z,70.53
2019-05-17T08:22:40.873Z,71.06
2019-05-17T08:25:20.569Z,71.79
2019-05-17T08:27:55.538Z,71.48
2019-05-17T08:30:30.614Z,71.14
2019-05-17T08:33:05.664Z,69.80
2019-05-17T08:35:40.776Z,69.70
2019-05-17T08:38:15.833Z,69.53
2019-05-17T08:40:51.150Z,69.42
2019-05-17T08:43:39.861Z,69.62
2019-05-17T08:46:04.024Z,69.11
2019-05-17T08:48:40.147Z,69.76
2019-05-17T08:51:15.369Z,69.90
2019-05-17T08:53:50.525Z,70.75
2019-05-17T08:56:25.575Z,70.25
2019-05-17T08:59:00.909Z,70.40
2019-05-17T09:01:38.447Z,70.00
2019-05-17T09:04:13.624Z,69.80
2019-05-17T09:06:50.468Z,67.15
2019-05-17T09:09:26.671Z,65.67
2019-05-17T09:12:02.032Z,65.14
2019-05-17T09:14:37.015Z,64.55
2019-05-17T09:17:12.190Z,63.42
2019-05-17T09:19:47.227Z,62.38
2019-05-17T09:22:22.271Z,59.96
2019-05-17T09:24:59.471Z,61.07
2019-05-17T09:27:34.009Z,60.59
2019-05-17T09:30:10.965Z,58.75
2019-05-17T09:32:46.192Z,59.27
2019-05-17T09:35:21.268Z,60.17
2019-05-17T09:37:56.368Z,61.44
2019-05-17T09:40:31.353Z,62.17
2019-05-17T09:43:06.578Z,61.31
2019-05-17T09:45:41.710Z,61.24
2019-05-17T09:48:19.470Z,61.36
2019-05-17T09:50:53.593Z,60.56
2019-05-17T09:53:30.755Z,59.07
2019-05-17T09:56:05.505Z,57.74
2019-05-17T09:58:40.627Z,58.62
2019-05-17T10:01:15.824Z,57.76
2019-05-17T10:03:50.931Z,58.49
2019-05-17T10:06:25.937Z,59.00
2019-05-17T10:09:00.886Z,59.12
2019-05-17T10:11:41.015Z,57.59
2019-05-17T10:14:27.478Z,59.11
2019-05-17T10:16:52.798Z,57.64
2019-05-17T10:19:29.445Z,57.00
2019-05-17T10:22:04.857Z,56.15
2019-05-17T10:24:42.424Z,57.94
2019-05-17T10:27:19.497Z,56.81
2019-05-17T10:29:54.224Z,57.72
2019-05-17T10:32:30.934Z,56.89
2019-05-17T10:35:07.041Z,56.87
2019-05-17T10:37:42.133Z,56.37
2019-05-17T10:40:17.537Z,55.01
2019-05-17T10:42:52.553Z,56.81
2019-05-17T10:45:27.506Z,56.40
2019-05-17T10:48:02.519Z,55.38
2019-05-17T10:50:40.668Z,56.14
2019-05-17T10:53:15.587Z,55.50
2019-05-17T10:55:50.671Z,54.87
2019-05-17T10:58:25.651Z,55.32
2019-05-17T11:01:00.989Z,54.48
2019-05-17T11:03:39.718Z,55.27
2019-05-17T11:06:14.642Z,56.50
2019-05-17T11:08:50.238Z,56.80
2019-05-17T11:11:25.321Z,56.74
2019-05-17T11:14:00.315Z,57.52
2019-05-17T11:16:35.387Z,57.43
2019-05-17T11:19:10.490Z,58.73
2019-05-17T11:21:45.519Z,58.11
2019-05-17T11:24:21.316Z,57.37
2019-05-17T11:26:56.296Z,57.43
2019-05-17T11:29:31.415Z,57.10
2019-05-17T11:32:06.457Z,57.70
2019-05-17T11:34:41.443Z,58.34
2019-05-17T11:37:16.642Z,58.13
2019-05-17T11:39:51.670Z,58.11
2019-05-17T11:42:26.796Z,59.43
2019-05-17T11:45:01.833Z,60.05
2019-05-17T11:47:36.962Z,60.01
2019-05-17T11:50:12.303Z,59.40
2019-05-17T11:52:47.618Z,58.88
2019-05-17T11:55:22.588Z,57.34
2019-05-17T11:57:57.672Z,56.68
2019-05-17T12:00:33.379Z,56.15
2019-05-17T12:03:08.587Z,54.63
2019-05-17T12:05:43.674Z,53.90
2019-05-17T12:08:18.779Z,54.57
2019-05-17T12:10:53.923Z,53.40
2019-05-17T12:13:29.651Z,53.97
2019-05-17T12:16:04.853Z,54.38
2019-05-17T12:18:39.985Z,55.08
2019-05-17T12:21:15.087Z,55.37
2019-05-17T12:23:50.125Z,56.45
2019-05-17T12:26:25.188Z,55.89
2019-05-17T12:29:01.209Z,57.09
2019-05-17T12:31:36.359Z,53.93
2019-05-17T12:34:11.408Z,54.35
2019-05-17T12:36:46.418Z,55.15
2019-05-17T12:39:21.541Z,53.43
2019-05-17T12:41:56.623Z,53.89
2019-05-17T12:44:31.887Z,53.65
2019-05-17T12:47:07.824Z,52.98
2019-05-17T12:49:43.049Z,54.57
2019-05-17T12:52:18.244Z,54.46
2019-05-17T12:54:53.276Z,54.46
2019-05-17T12:57:29.084Z,54.18
2019-05-17T13:00:04.188Z,54.74
2019-05-17T13:02:39.159Z,54.59
2019-05-17T13:05:14.322Z,54.82
2019-05-17T13:07:49.413Z,54.66
2019-05-17T13:10:24.555Z,55.45
2019-05-17T13:12:59.537Z,54.06
2019-05-17T13:15:34.747Z,55.10
2019-05-17T13:18:09.894Z,53.87
2019-05-17T13:20:44.935Z,55.27
2019-05-17T13:23:19.953Z,55.26
2019-05-17T13:25:55.241Z,55.37
2019-05-17T13:28:30.318Z,54.93
2019-05-17T13:31:05.354Z,54.47
2019-05-17T13:33:40.373Z,53.94
2019-05-17T13:36:15.420Z,54.80
2019-05-17T13:38:50.466Z,55.73
2019-05-17T13:41:25.561Z,56.20
2019-05-17T13:44:00.652Z,57.43
2019-05-17T13:46:35.698Z,57.08
2019-05-17T13:49:10.899Z,58.56
2019-05-17T13:51:46.096Z,59.25
2019-05-17T13:54:21.207Z,59.84
2019-05-17T13:56:56.321Z,58.86
2019-05-17T13:59:31.451Z,59.06
2019-05-17T14:02:06.519Z,58.31
2019-05-17T14:04:41.600Z,58.53
2019-05-17T14:07:16.648Z,58.90
2019-05-17T14:09:52.832Z,57.91
2019-05-17T14:12:28.021Z,57.55
2019-05-17T14:15:03.130Z,56.60
2019-05-17T14:17:38.194Z,56.38
2019-05-17T14:20:13.547Z,55.77
2019-05-17T14:22:48.604Z,54.90
2019-05-17T14:25:24.864Z,55.56
2019-05-17T14:27:59.905Z,54.53
2019-05-17T14:30:35.238Z,54.92
2019-05-17T14:33:10.419Z,54.42
2019-05-17T14:35:45.553Z,54.04
2019-05-17T14:38:20.571Z,55.71
2019-05-17T14:41:11.217Z,54.73
2019-05-17T14:43:32.487Z,55.70
2019-05-17T14:46:08.638Z,55.49
2019-05-17T14:48:43.721Z,55.72
2019-05-17T14:51:18.719Z,56.97
2019-05-17T14:53:53.777Z,57.03
2019-05-17T14:56:28.787Z,56.88
2019-05-17T14:59:04.035Z,57.70
2019-05-17T15:01:39.009Z,57.14
2019-05-17T15:04:14.006Z,56.93
2019-05-17T15:06:49.059Z,57.61
2019-05-17T15:09:25.025Z,58.45
2019-05-17T15:12:00.057Z,57.61
2019-05-17T15:14:35.065Z,56.89
2019-05-17T15:17:10.137Z,56.43
2019-05-17T15:19:45.254Z,56.20
2019-05-17T15:22:20.431Z,55.44
2019-05-17T15:24:55.402Z,54.91
2019-05-17T15:27:30.545Z,54.86
2019-05-17T15:30:06.406Z,54.35
2019-05-17T15:32:41.405Z,54.09
2019-05-17T15:35:16.476Z,54.44
2019-05-17T15:37:52.463Z,54.29
2019-05-17T15:40:27.643Z,54.35
2019-05-17T15:43:02.861Z,54.71
2019-05-17T15:45:37.962Z,55.73
2019-05-17T15:48:13.245Z,55.52
2019-05-17T15:50:48.319Z,55.06
2019-05-17T15:53:23.469Z,55.68
2019-05-17T15:55:58.617Z,55.38
2019-05-17T15:58:33.580Z,55.28
2019-05-17T16:01:09.910Z,55.38
2019-05-17T16:03:45.922Z,54.67
2019-05-17T16:06:20.969Z,54.25
2019-05-17T16:08:56.164Z,54.58
2019-05-17T16:11:31.205Z,55.93
2019-05-17T16:14:06.368Z,55.53
2019-05-17T16:16:41.474Z,56.15
2019-05-17T16:19:17.506Z,55.29
2019-05-17T16:21:52.693Z,55.36
2019-05-17T16:24:27.705Z,56.27
2019-05-17T16:27:02.736Z,55.85
2019-05-17T16:29:37.716Z,56.74
2019-05-17T16:32:12.947Z,56.66
2019-05-17T16:34:49.002Z,56.49
2019-05-17T16:37:23.997Z,56.53
2019-05-17T16:39:59.084Z,56.87
2019-05-17T16:42:34.306Z,56.46
2019-05-17T16:45:11.602Z,56.74
2019-05-17T16:47:47.594Z,56.94
2019-05-17T16:50:22.588Z,57.52
2019-05-17T16:53:05.718Z,57.18
2019-05-17T16:55:34.366Z,56.10
2019-05-17T16:58:09.380Z,55.82
2019-05-17T17:00:46.294Z,55.49
2019-05-17T17:03:21.364Z,56.13
2019-05-17T17:05:56.454Z,56.48
2019-05-17T17:08:31.504Z,56.58
2019-05-17T17:11:08.207Z,56.64
2019-05-17T17:13:43.333Z,56.48
2019-05-17T17:16:18.331Z,56.93
2019-05-17T17:18:53.368Z,57.69
2019-05-17T17:21:28.400Z,56.59
2019-05-17T17:24:03.814Z,57.41
2019-05-17T17:26:38.806Z,58.04
2019-05-17T17:29:15.946Z,57.28
2019-05-17T17:31:51.138Z,57.43
2019-05-17T17:34:26.303Z,57.52
2019-05-17T17:37:01.305Z,57.97
2019-05-17T17:39:37.411Z,58.32
2019-05-17T17:42:12.713Z,58.32
2019-05-17T17:44:47.895Z,58.28
2019-05-17T17:47:22.860Z,58.34
2019-05-17T17:49:58.072Z,59.24
2019-05-17T17:52:35.012Z,58.48
2019-05-17T17:55:10.729Z,58.77
2019-05-17T17:57:45.799Z,58.86
2019-05-17T18:00:21.926Z,58.16
2019-05-17T18:02:56.986Z,58.25
2019-05-17T18:05:32.070Z,58.87
2019-05-17T18:08:07.839Z,60.21
2019-05-17T18:10:46.328Z,58.62
2019-05-17T18:13:19.798Z,58.82
2019-05-17T18:15:55.076Z,59.43
2019-05-17T18:18:30.065Z,59.55
2019-05-17T18:21:09.820Z,59.60
2019-05-17T18:23:44.994Z,60.20
2019-05-17T18:26:20.172Z,60.63
2019-05-17T18:28:55.383Z,60.38
2019-05-17T18:31:30.592Z,61.25
2019-05-17T18:34:05.949Z,60.90
2019-05-17T18:36:41.131Z,60.92
2019-05-17T18:39:16.438Z,60.75
2019-05-17T18:41:54.627Z,61.63
2019-05-17T18:44:28.580Z,61.64
2019-05-17T18:47:07.633Z,61.47
2019-05-17T18:49:43.055Z,61.62
2019-05-17T18:52:18.167Z,61.97
2019-05-17T18:54:53.363Z,61.58
2019-05-17T18:57:28.634Z,62.26
2019-05-17T19:00:04.481Z,62.68
2019-05-17T19:02:39.940Z,62.84
2019-05-17T19:05:17.333Z,62.81
2019-05-17T19:07:52.526Z,63.15
2019-05-17T19:10:27.826Z,62.67
2019-05-17T19:13:03.009Z,62.96
2019-05-17T19:15:38.104Z,63.29
2019-05-17T19:18:13.239Z,62.88
2019-05-17T19:20:48.547Z,62.35
2019-05-17T19:23:25.892Z,63.13
2019-05-17T19:26:00.748Z,63.39
2019-05-17T19:28:35.977Z,63.95
2019-05-17T19:31:11.220Z,63.84
2019-05-17T19:33:46.307Z,64.07
2019-05-17T19:36:21.602Z,63.71
2019-05-17T19:38:56.875Z,64.52
2019-05-17T19:41:32.456Z,64.54
2019-05-17T19:44:07.602Z,64.96
2019-05-17T19:46:43.512Z,64.19
2019-05-17T19:49:18.780Z,64.12
2019-05-17T19:51:54.059Z,64.13
2019-05-17T19:54:29.322Z,65.24
2019-05-17T19:57:04.522Z,65.65
2019-05-17T19:59:39.715Z,64.81
2019-05-17T20:02:15.256Z,64.87
2019-05-17T20:04:50.416Z,64.67
2019-05-17T20:07:25.452Z,65.21
2019-05-17T20:10:00.607Z,65.53
2019-05-17T20:12:35.836Z,64.51
2019-05-17T20:15:17.733Z,65.71
2019-05-17T20:17:48.876Z,66.05
2019-05-17T20:20:24.007Z,65.81
2019-05-17T20:22:59.506Z,65.58
2019-05-17T20:25:34.942Z,65.37
2019-05-17T20:28:09.967Z,64.83
2019-05-17T20:30:45.182Z,65.01
2019-05-17T20:33:21.364Z,65.01
2019-05-17T20:35:56.468Z,65.61
2019-05-17T20:38:31.463Z,65.46
2019-05-17T20:41:10.271Z,65.66
2019-05-17T20:43:45.314Z,65.95
2019-05-17T20:46:20.428Z,66.44
2019-05-17T20:48:55.596Z,66.39
2019-05-17T20:51:30.785Z,65.81
2019-05-17T20:54:05.807Z,65.54
2019-05-17T20:56:43.210Z,66.17
2019-05-17T20:59:18.231Z,66.46
2019-05-17T21:01:53.869Z,66.01
2019-05-17T21:04:28.866Z,66.31
2019-05-17T21:07:04.326Z,66.51
2019-05-17T21:09:40.205Z,67.38
2019-05-17T21:12:15.415Z,67.84
2019-05-17T21:14:50.514Z,67.75
2019-05-17T21:17:25.565Z,68.04
2019-05-17T21:20:00.627Z,68.05
2019-05-17T21:22:35.896Z,68.46
2019-05-17T21:25:11.283Z,68.73
2019-05-17T21:27:46.502Z,68.87
2019-05-17T21:30:21.706Z,69.24
2019-05-17T21:32:58.068Z,69.43
2019-05-17T21:35:33.457Z,69.94
2019-05-17T21:38:08.631Z,70.32
2019-05-17T21:40:43.646Z,70.30
2019-05-17T21:43:18.679Z,69.77
2019-05-17T21:46:03.651Z,70.32
2019-05-17T21:48:33.235Z,70.64
2019-05-17T21:51:08.234Z,71.14
2019-05-17T21:53:43.231Z,71.52
2019-05-17T21:56:18.247Z,71.45
2019-05-17T21:58:53.289Z,71.83
2019-05-17T22:01:31.047Z,71.82
2019-05-17T22:04:06.199Z,72.02
2019-05-17T22:06:41.209Z,72.26
2019-05-17T22:09:16.199Z,72.35
2019-05-17T22:11:54.064Z,72.05
2019-05-17T22:14:29.063Z,72.34
2019-05-17T22:17:04.088Z,72.71
2019-05-17T22:19:39.136Z,72.79
2019-05-17T22:22:14.197Z,72.99
2019-05-17T22:24:49.288Z,72.94
2019-05-17T22:27:24.281Z,72.60
2019-05-17T22:29:59.291Z,72.81
2019-05-17T22:32:34.328Z,73.08
2019-05-17T22:35:09.681Z,73.41
2019-05-17T22:37:44.773Z,73.73
2019-05-17T22:40:19.767Z,73.83
2019-05-17T22:42:54.798Z,73.67
2019-05-17T22:45:29.775Z,73.97
2019-05-17T22:48:04.920Z,74.21
2019-05-17T22:50:45.217Z,73.55
2019-05-17T22:53:20.292Z,74.01
2019-05-17T22:55:55.396Z,74.12
2019-05-17T22:58:30.470Z,73.56
2019-05-17T23:01:08.451Z,73.13
2019-05-17T23:03:43.448Z,73.12
2019-05-17T23:06:18.449Z,73.83
2019-05-17T23:08:54.248Z,74.06
2019-05-17T23:11:29.333Z,73.87
2019-05-17T23:14:04.522Z,73.77
2019-05-17T23:16:51.183Z,74.13
2019-05-17T23:19:16.261Z,74.41
2019-05-17T23:21:51.267Z,74.26
2019-05-17T23:24:26.320Z,74.20
2019-05-17T23:27:01.652Z,73.85
2019-05-17T23:29:36.657Z,74.36
2019-05-17T23:32:11.760Z,74.87
2019-05-17T23:34:46.877Z,74.74
2019-05-17T23:37:22.055Z,74.86
2019-05-17T23:39:57.075Z,75.16
2019-05-17T23:42:32.296Z,75.34
2019-05-17T23:45:08.081Z,75.77
2019-05-17T23:47:43.207Z,75.72
2019-05-17T23:50:18.221Z,75.85
2019-05-17T23:52:53.232Z,75.82
2019-05-17T23:55:28.339Z,75.96
2019-05-17T23:58:03.378Z,76.04
